Terminal Aerodrome Forecast
Issued by NWS

Home | Current Version | Previous Version | Text Only | Print | Product List | Glossary On
Versions: 1 2 3 4 5 6 7 8 9 10 11 12
000
FTUS43 KJKL 231700
TAFSJS
TAF
KSJS 231720Z 2318/2418 32007KT P6SM SKC
     FM240000 VRB03KT P6SM SCT200
     FM241000 VRB03KT P6SM BKN110=

USA.gov is the U.S. government's official web portal to all federal, state and local government web resources and services.